Time;durP1;ratioP1;P1;durP2;ratioP2;P2;SDS_P1;SDS_P2;PMS_P1;PMS_P2;Temp;Humidity;BMP_temperature;BMP_pressure;BME280_temperature;BME280_humidity;BME280_pressure;Samples;Min_cycle;Max_cycle;Signal;HPM_P1;HPM_P2
2023/07/26 00:01:15;;;;;;;4.95;1.48;;;;;;;;;;5041956;28;20214;-60
2023/07/26 00:03:41;;;;;;;4.15;1.45;;;;;;;;;;5042469;28;20032;-60
2023/07/26 00:06:07;;;;;;;3.72;1.60;;;;;;;;;;5043131;28;20111;-59
2023/07/26 00:08:33;;;;;;;3.50;1.70;;;;;;;;;;5042122;28;20028;-60
2023/07/26 00:10:59;;;;;;;3.05;1.38;;;;;;;;;;5041897;28;20032;-60
2023/07/26 00:13:25;;;;;;;3.80;1.70;;;;;;;;;;5041229;28;20051;-60
2023/07/26 00:15:51;;;;;;;3.95;1.40;;;;;;;;;;5043191;28;20032;-60
2023/07/26 00:18:17;;;;;;;8.80;2.30;;;;;;;;;;5042851;28;20058;-60
2023/07/26 00:20:43;;;;;;;5.80;1.27;;;;;;;;;;5042703;28;20318;-60
2023/07/26 00:23:09;;;;;;;3.72;1.58;;;;;;;;;;5042836;28;20033;-59
2023/07/26 00:25:36;;;;;;;4.60;1.70;;;;;;;;;;5041471;28;20024;-60
2023/07/26 00:28:02;;;;;;;3.28;1.20;;;;;;;;;;5043166;28;20036;-59
2023/07/26 00:30:28;;;;;;;3.95;1.30;;;;;;;;;;5042790;28;20031;-59
2023/07/26 00:32:54;;;;;;;3.55;1.80;;;;;;;;;;5042368;28;20561;-60
2023/07/26 00:35:21;;;;;;;5.05;1.77;;;;;;;;;;5039862;28;20044;-59
2023/07/26 00:37:47;;;;;;;3.63;1.60;;;;;;;;;;5040582;28;20149;-59
2023/07/26 00:40:13;;;;;;;4.63;1.73;;;;;;;;;;5041441;28;20083;-59
2023/07/26 00:42:39;;;;;;;5.82;1.80;;;;;;;;;;5038716;28;20863;-59
2023/07/26 00:45:06;;;;;;;5.95;1.50;;;;;;;;;;5028001;28;20036;-59
2023/07/26 00:47:32;;;;;;;4.60;1.67;;;;;;;;;;5042768;28;20024;-59
2023/07/26 00:49:58;;;;;;;4.00;1.60;;;;;;;;;;5043228;28;20116;-60
2023/07/26 00:52:25;;;;;;;3.90;1.60;;;;;;;;;;5043222;28;20774;-60
2023/07/26 00:54:51;;;;;;;6.72;2.55;;;;;;;;;;5041687;28;20024;-59
2023/07/26 00:57:17;;;;;;;4.78;1.80;;;;;;;;;;5043252;28;20036;-59
2023/07/26 00:59:43;;;;;;;5.20;1.90;;;;;;;;;;5041999;28;20029;-60
2023/07/26 01:02:09;;;;;;;5.57;1.80;;;;;;;;;;5040991;28;20800;-60
2023/07/26 01:04:35;;;;;;;3.65;1.90;;;;;;;;;;5043502;28;20033;-59
2023/07/26 01:07:28;;;;;;;5.95;1.90;;;;;;;;;;5047496;28;20055;-59
2023/07/26 01:10:13;;;;;;;5.47;2.03;;;;;;;;;;5022440;28;20681;-60
2023/07/26 01:12:47;;;;;;;4.63;2.05;;;;;;;;;;5044665;28;20032;-59
2023/07/26 01:15:16;;;;;;;4.00;1.60;;;;;;;;;;5043419;28;20051;-59
2023/07/26 01:17:42;;;;;;;4.72;2.20;;;;;;;;;;5046931;28;20028;-60
2023/07/26 01:20:08;;;;;;;3.92;1.73;;;;;;;;;;5046108;28;22354;-60
2023/07/26 01:22:34;;;;;;;8.32;2.80;;;;;;;;;;5045974;28;20048;-60
2023/07/26 01:25:00;;;;;;;6.50;2.17;;;;;;;;;;5044565;28;20024;-59
2023/07/26 01:27:26;;;;;;;4.10;2.03;;;;;;;;;;5046614;28;20035;-59
2023/07/26 01:29:56;;;;;;;5.28;2.10;;;;;;;;;;5045521;28;20821;-59
2023/07/26 01:32:23;;;;;;;7.18;2.58;;;;;;;;;;5044647;28;20025;-60
2023/07/26 01:34:49;;;;;;;6.32;1.80;;;;;;;;;;5045722;28;20764;-59
2023/07/26 01:37:16;;;;;;;7.13;1.75;;;;;;;;;;5044955;28;20037;-60
2023/07/26 01:39:43;;;;;;;4.90;1.80;;;;;;;;;;5046347;28;20024;-59
2023/07/26 01:42:09;;;;;;;5.45;1.77;;;;;;;;;;5043490;28;20661;-60
2023/07/26 01:44:38;;;;;;;5.60;2.33;;;;;;;;;;5046264;28;20039;-59
2023/07/26 01:47:05;;;;;;;3.65;1.88;;;;;;;;;;5046104;28;20669;-59
2023/07/26 01:49:31;;;;;;;4.63;1.92;;;;;;;;;;5043701;28;20078;-59
2023/07/26 01:51:57;;;;;;;6.93;2.50;;;;;;;;;;5044376;28;20041;-60
2023/07/26 01:54:23;;;;;;;4.53;1.95;;;;;;;;;;5044316;28;20040;-60
2023/07/26 01:56:49;;;;;;;4.93;2.13;;;;;;;;;;5045402;28;20110;-60
2023/07/26 01:59:15;;;;;;;4.75;2.10;;;;;;;;;;5045299;28;20067;-59
2023/07/26 02:01:42;;;;;;;3.70;1.77;;;;;;;;;;5027521;28;20134;-59
2023/07/26 02:04:08;;;;;;;6.22;2.58;;;;;;;;;;5044170;28;21752;-60
2023/07/26 02:06:34;;;;;;;4.38;1.80;;;;;;;;;;5045690;28;20625;-59
2023/07/26 02:09:00;;;;;;;6.68;2.40;;;;;;;;;;5044100;28;20020;-59
2023/07/26 02:11:26;;;;;;;6.47;2.38;;;;;;;;;;5044911;28;20031;-59
2023/07/26 02:13:52;;;;;;;4.35;2.20;;;;;;;;;;5043987;28;20032;-59
2023/07/26 02:16:18;;;;;;;4.43;2.20;;;;;;;;;;5045802;28;20028;-59
2023/07/26 02:18:44;;;;;;;7.68;2.40;;;;;;;;;;5044825;28;20054;-59
2023/07/26 02:21:10;;;;;;;5.55;1.98;;;;;;;;;;5044993;28;20032;-59
2023/07/26 02:23:36;;;;;;;4.07;2.10;;;;;;;;;;5045494;28;20786;-59
2023/07/26 02:26:02;;;;;;;3.38;1.88;;;;;;;;;;5044630;28;20036;-59
2023/07/26 02:28:28;;;;;;;4.90;2.00;;;;;;;;;;5043540;28;20025;-59
2023/07/26 02:30:54;;;;;;;4.68;2.10;;;;;;;;;;5042620;28;20051;-59
2023/07/26 02:33:20;;;;;;;4.55;1.92;;;;;;;;;;5026430;28;20422;-59
2023/07/26 02:35:46;;;;;;;4.93;2.08;;;;;;;;;;5043602;28;20047;-59
2023/07/26 02:38:12;;;;;;;5.65;2.75;;;;;;;;;;5042581;28;20032;-60
2023/07/26 02:40:38;;;;;;;5.32;1.98;;;;;;;;;;5042198;28;20078;-60
2023/07/26 02:43:05;;;;;;;5.20;2.20;;;;;;;;;;5042403;28;20057;-59
2023/07/26 02:45:31;;;;;;;7.38;2.50;;;;;;;;;;5043262;28;20035;-60
2023/07/26 02:47:57;;;;;;;6.57;2.30;;;;;;;;;;5043989;28;20059;-59
2023/07/26 02:50:23;;;;;;;4.75;2.40;;;;;;;;;;5043888;28;20040;-59
2023/07/26 02:52:49;;;;;;;5.57;2.33;;;;;;;;;;5042205;28;20036;-59
2023/07/26 02:55:15;;;;;;;6.65;2.20;;;;;;;;;;5043784;28;20041;-59
2023/07/26 02:57:41;;;;;;;5.32;2.58;;;;;;;;;;5044493;28;20044;-59
2023/07/26 03:00:07;;;;;;;4.90;2.20;;;;;;;;;;5044320;28;20037;-59
2023/07/26 03:02:33;;;;;;;6.43;2.65;;;;;;;;;;5043529;28;20060;-59
2023/07/26 03:05:00;;;;;;;7.72;2.30;;;;;;;;;;5044435;28;20155;-59
2023/07/26 03:07:26;;;;;;;5.30;2.90;;;;;;;;;;5043824;28;20123;-59
2023/07/26 03:09:52;;;;;;;4.30;2.22;;;;;;;;;;5045923;28;20836;-59
2023/07/26 03:12:18;;;;;;;6.57;2.50;;;;;;;;;;5043042;28;20036;-59
2023/07/26 03:14:44;;;;;;;6.65;2.80;;;;;;;;;;5043724;28;20040;-59
2023/07/26 03:17:10;;;;;;;5.57;2.35;;;;;;;;;;5028071;28;20040;-59
2023/07/26 03:19:36;;;;;;;6.75;2.53;;;;;;;;;;5045720;28;20399;-59
2023/07/26 03:22:03;;;;;;;4.38;2.38;;;;;;;;;;5042662;28;20040;-59
2023/07/26 03:24:29;;;;;;;5.65;2.63;;;;;;;;;;5043946;28;20067;-59
2023/07/26 03:26:55;;;;;;;6.10;2.70;;;;;;;;;;5044051;28;20029;-59
2023/07/26 03:29:21;;;;;;;5.13;2.20;;;;;;;;;;5043433;28;20036;-59
2023/07/26 03:31:47;;;;;;;6.25;2.78;;;;;;;;;;5043270;28;20441;-60
2023/07/26 03:34:13;;;;;;;6.88;2.50;;;;;;;;;;5043003;28;20147;-59
2023/07/26 03:36:40;;;;;;;4.22;1.92;;;;;;;;;;5043674;28;20144;-59
2023/07/26 03:39:06;;;;;;;6.95;2.60;;;;;;;;;;5044162;28;20032;-59
2023/07/26 03:41:32;;;;;;;5.72;2.20;;;;;;;;;;5042028;28;20028;-59
2023/07/26 03:43:58;;;;;;;6.28;2.35;;;;;;;;;;5043896;28;20513;-60
2023/07/26 03:46:24;;;;;;;6.32;2.60;;;;;;;;;;5043407;28;20083;-59
2023/07/26 03:48:50;;;;;;;7.82;2.70;;;;;;;;;;5042697;28;21824;-60
2023/07/26 03:51:16;;;;;;;6.25;2.88;;;;;;;;;;5042010;28;20032;-59
2023/07/26 03:53:42;;;;;;;6.38;2.45;;;;;;;;;;5026445;28;20450;-59
2023/07/26 03:56:08;;;;;;;4.75;2.22;;;;;;;;;;5024718;28;20047;-59
2023/07/26 03:58:34;;;;;;;5.80;2.70;;;;;;;;;;5043598;28;20028;-59
2023/07/26 04:01:00;;;;;;;5.13;2.67;;;;;;;;;;5043013;28;20047;-59
2023/07/26 04:03:26;;;;;;;4.97;2.30;;;;;;;;;;5041490;28;20909;-60
2023/07/26 04:05:53;;;;;;;5.72;2.70;;;;;;;;;;5044528;28;20463;-60
2023/07/26 04:08:19;;;;;;;7.07;2.78;;;;;;;;;;5043547;28;20078;-59
2023/07/26 04:10:45;;;;;;;12.88;3.53;;;;;;;;;;5043286;28;20079;-60
2023/07/26 04:13:11;;;;;;;4.38;2.72;;;;;;;;;;5042870;28;20033;-59
2023/07/26 04:15:37;;;;;;;7.03;2.97;;;;;;;;;;5044868;28;20109;-59
2023/07/26 04:18:03;;;;;;;6.82;3.22;;;;;;;;;;5043520;28;20032;-60
2023/07/26 04:20:29;;;;;;;5.95;3.17;;;;;;;;;;5026061;28;20088;-59
2023/07/26 04:22:55;;;;;;;4.85;2.22;;;;;;;;;;5040558;28;20036;-59
2023/07/26 04:25:21;;;;;;;6.28;2.78;;;;;;;;;;5043034;28;21748;-59
2023/07/26 04:27:47;;;;;;;9.68;3.00;;;;;;;;;;5042920;28;20547;-59
2023/07/26 04:30:13;;;;;;;6.97;2.60;;;;;;;;;;5042865;28;20047;-60
2023/07/26 04:32:39;;;;;;;6.55;2.95;;;;;;;;;;5040715;28;20426;-59
2023/07/26 04:35:05;;;;;;;5.22;2.85;;;;;;;;;;5041814;28;20044;-60
2023/07/26 04:37:31;;;;;;;5.88;3.00;;;;;;;;;;5041811;28;20036;-59
2023/07/26 04:39:58;;;;;;;8.82;2.78;;;;;;;;;;5042422;28;20048;-59
2023/07/26 04:42:24;;;;;;;5.65;2.88;;;;;;;;;;5042694;28;20041;-60
2023/07/26 04:44:50;;;;;;;6.93;3.20;;;;;;;;;;5046511;28;20051;-60
2023/07/26 04:47:18;;;;;;;6.80;3.35;;;;;;;;;;5045456;28;21857;-60
2023/07/26 04:49:44;;;;;;;5.45;3.00;;;;;;;;;;5046844;28;20109;-59
2023/07/26 04:52:10;;;;;;;5.05;2.65;;;;;;;;;;5046507;28;20732;-60
2023/07/26 04:54:36;;;;;;;7.88;3.03;;;;;;;;;;5047377;28;21061;-59
2023/07/26 04:57:02;;;;;;;5.43;3.00;;;;;;;;;;5047134;28;20047;-59
2023/07/26 04:59:28;;;;;;;11.27;3.28;;;;;;;;;;5047526;28;20032;-59
2023/07/26 05:01:54;;;;;;;6.50;3.33;;;;;;;;;;5046868;28;21808;-59
2023/07/26 05:04:20;;;;;;;6.80;2.92;;;;;;;;;;5046985;28;20985;-59
2023/07/26 05:06:46;;;;;;;8.35;2.97;;;;;;;;;;5045678;28;20032;-59
2023/07/26 05:09:12;;;;;;;6.00;2.78;;;;;;;;;;5045558;28;20028;-60
2023/07/26 05:11:38;;;;;;;9.98;3.03;;;;;;;;;;5047495;28;20479;-59
2023/07/26 05:14:04;;;;;;;8.27;2.63;;;;;;;;;;5046144;28;21576;-60
2023/07/26 05:16:30;;;;;;;6.00;2.50;;;;;;;;;;5046130;28;20073;-59
2023/07/26 05:18:58;;;;;;;5.80;2.70;;;;;;;;;;5046850;28;20036;-59
2023/07/26 05:21:24;;;;;;;5.55;3.15;;;;;;;;;;5045584;28;21591;-59
2023/07/26 05:23:50;;;;;;;7.10;2.70;;;;;;;;;;5047978;28;21014;-59
2023/07/26 05:26:16;;;;;;;5.50;2.30;;;;;;;;;;5032253;28;20024;-59
2023/07/26 05:28:43;;;;;;;5.03;2.42;;;;;;;;;;5033601;28;20074;-59
2023/07/26 05:31:09;;;;;;;6.15;2.13;;;;;;;;;;5047208;28;20037;-59
2023/07/26 05:33:35;;;;;;;8.35;2.65;;;;;;;;;;5045100;28;20033;-59
2023/07/26 05:36:01;;;;;;;5.25;2.50;;;;;;;;;;5044965;28;20056;-59
2023/07/26 05:38:27;;;;;;;6.10;2.25;;;;;;;;;;5046401;28;20036;-59
2023/07/26 05:40:53;;;;;;;4.07;1.75;;;;;;;;;;5046521;28;20051;-60
2023/07/26 05:43:19;;;;;;;7.60;2.47;;;;;;;;;;5045582;28;20676;-59
2023/07/26 05:45:45;;;;;;;4.25;1.88;;;;;;;;;;5045276;28;20067;-60
2023/07/26 05:48:14;;;;;;;4.82;2.00;;;;;;;;;;5045639;28;20048;-60
2023/07/26 05:50:40;;;;;;;5.88;2.08;;;;;;;;;;5045165;28;20123;-60
2023/07/26 05:53:06;;;;;;;5.75;2.13;;;;;;;;;;5045474;28;20032;-60
2023/07/26 05:55:32;;;;;;;4.13;1.63;;;;;;;;;;5045605;28;20028;-60
2023/07/26 05:57:59;;;;;;;5.50;1.77;;;;;;;;;;5043857;28;20033;-60
2023/07/26 06:00:25;;;;;;;2.58;1.30;;;;;;;;;;5045408;28;20089;-60
2023/07/26 06:02:51;;;;;;;3.55;1.50;;;;;;;;;;5046208;28;20033;-60
2023/07/26 06:05:17;;;;;;;4.88;1.58;;;;;;;;;;5044754;28;20039;-60
2023/07/26 06:07:43;;;;;;;3.83;1.67;;;;;;;;;;5043727;28;20025;-60
2023/07/26 06:10:09;;;;;;;4.85;1.85;;;;;;;;;;5046082;28;20066;-60
2023/07/26 06:12:35;;;;;;;5.10;2.38;;;;;;;;;;5044943;28;20028;-60
2023/07/26 06:15:01;;;;;;;6.72;1.85;;;;;;;;;;5045334;28;20038;-60
2023/07/26 06:17:28;;;;;;;5.70;2.15;;;;;;;;;;5044742;28;20078;-60
2023/07/26 06:19:54;;;;;;;5.28;1.90;;;;;;;;;;5024196;28;21809;-60
2023/07/26 06:22:20;;;;;;;4.68;1.67;;;;;;;;;;5044134;28;20037;-60
2023/07/26 06:24:46;;;;;;;5.65;1.95;;;;;;;;;;5044869;28;20035;-60
2023/07/26 06:27:12;;;;;;;5.20;1.70;;;;;;;;;;5045073;28;20044;-60
2023/07/26 06:29:40;;;;;;;4.72;1.90;;;;;;;;;;5045961;28;20032;-60
2023/07/26 06:32:06;;;;;;;4.90;1.63;;;;;;;;;;5045612;28;20146;-60
2023/07/26 06:34:32;;;;;;;5.93;1.92;;;;;;;;;;5045162;28;20098;-60
2023/07/26 06:36:58;;;;;;;4.57;1.90;;;;;;;;;;5044900;28;20033;-60
2023/07/26 06:39:26;;;;;;;6.28;2.25;;;;;;;;;;5045385;28;20032;-60
2023/07/26 06:41:52;;;;;;;7.43;1.75;;;;;;;;;;5044194;28;20043;-60
2023/07/26 06:44:18;;;;;;;4.40;1.92;;;;;;;;;;5041626;28;20055;-60
2023/07/26 06:46:44;;;;;;;5.45;2.10;;;;;;;;;;5041918;28;20039;-60
2023/07/26 06:49:11;;;;;;;5.55;2.08;;;;;;;;;;5041965;28;20040;-60
2023/07/26 06:51:37;;;;;;;6.90;2.20;;;;;;;;;;5024268;28;20039;-60
2023/07/26 06:54:03;;;;;;;4.88;1.65;;;;;;;;;;5041353;28;20040;-60
2023/07/26 06:56:29;;;;;;;5.88;1.98;;;;;;;;;;5042671;28;20033;-60
2023/07/26 06:58:55;;;;;;;4.38;1.88;;;;;;;;;;5043972;28;20032;-60
2023/07/26 07:01:21;;;;;;;7.05;2.38;;;;;;;;;;5044830;28;20033;-60
2023/07/26 07:03:47;;;;;;;8.05;2.13;;;;;;;;;;5044458;28;20109;-60
2023/07/26 07:06:14;;;;;;;5.50;2.15;;;;;;;;;;5048217;28;20039;-60
2023/07/26 07:08:40;;;;;;;5.38;2.17;;;;;;;;;;5051488;28;20102;-60
2023/07/26 07:11:07;;;;;;;6.30;2.53;;;;;;;;;;5052493;28;20706;-65
2023/07/26 07:13:36;;;;;;;5.70;2.13;;;;;;;;;;5052973;28;20060;-66
2023/07/26 07:16:06;;;;;;;5.40;2.30;;;;;;;;;;5051918;28;20040;-65
2023/07/26 07:18:32;;;;;;;7.65;2.03;;;;;;;;;;5039659;28;20035;-65
2023/07/26 07:21:00;;;;;;;5.15;2.10;;;;;;;;;;5043005;28;20067;-65
2023/07/26 07:23:26;;;;;;;5.28;1.95;;;;;;;;;;5042569;28;21041;-65
2023/07/26 07:25:52;;;;;;;4.97;2.03;;;;;;;;;;5042835;28;20051;-65
2023/07/26 07:28:18;;;;;;;4.03;2.00;;;;;;;;;;5042495;28;20024;-65
2023/07/26 07:30:45;;;;;;;7.07;1.80;;;;;;;;;;5041157;28;20142;-65
2023/07/26 07:33:11;;;;;;;5.35;1.90;;;;;;;;;;5042104;28;20036;-65
2023/07/26 07:35:37;;;;;;;3.63;1.52;;;;;;;;;;5043058;28;20035;-65
2023/07/26 07:38:03;;;;;;;4.57;1.77;;;;;;;;;;5042137;28;20032;-65
2023/07/26 07:40:29;;;;;;;5.35;1.90;;;;;;;;;;5043580;28;20035;-65
2023/07/26 07:42:55;;;;;;;4.13;1.75;;;;;;;;;;5043066;28;20036;-65
2023/07/26 07:45:21;;;;;;;7.35;1.85;;;;;;;;;;5041105;28;20115;-65
2023/07/26 07:47:47;;;;;;;4.90;1.63;;;;;;;;;;5042067;28;20036;-65
2023/07/26 07:50:13;;;;;;;5.65;1.55;;;;;;;;;;5041919;28;20028;-65
2023/07/26 07:52:39;;;;;;;3.50;1.10;;;;;;;;;;5023089;28;20826;-65
2023/07/26 07:55:05;;;;;;;2.60;1.25;;;;;;;;;;5042160;28;20070;-65
2023/07/26 07:57:31;;;;;;;2.47;1.20;;;;;;;;;;5041507;28;20036;-65
2023/07/26 07:59:57;;;;;;;3.53;1.17;;;;;;;;;;5042873;28;20123;-65
2023/07/26 08:02:23;;;;;;;3.10;1.20;;;;;;;;;;5041373;28;20039;-65
2023/07/26 08:04:50;;;;;;;4.15;1.60;;;;;;;;;;5041558;28;20075;-65
2023/07/26 08:07:18;;;;;;;3.67;1.67;;;;;;;;;;5041572;28;20102;-65
2023/07/26 08:09:44;;;;;;;4.80;1.60;;;;;;;;;;5041636;28;20033;-65
2023/07/26 08:12:10;;;;;;;5.55;1.80;;;;;;;;;;5024887;28;21844;-65
2023/07/26 08:14:36;;;;;;;3.42;1.70;;;;;;;;;;5043704;28;20037;-65
2023/07/26 08:17:02;;;;;;;2.97;1.42;;;;;;;;;;5047040;28;20033;-65
2023/07/26 08:19:28;;;;;;;3.65;1.88;;;;;;;;;;5044257;28;20681;-65
2023/07/26 08:21:55;;;;;;;4.00;1.48;;;;;;;;;;5045537;28;20098;-65
2023/07/26 08:24:21;;;;;;;2.75;1.23;;;;;;;;;;5045201;28;20028;-65
2023/07/26 08:26:47;;;;;;;3.63;1.92;;;;;;;;;;5045114;28;20035;-65
2023/07/26 08:29:13;;;;;;;2.83;1.42;;;;;;;;;;5045625;28;20155;-65
2023/07/26 08:31:39;;;;;;;3.17;1.42;;;;;;;;;;5045102;28;20032;-65
2023/07/26 08:34:05;;;;;;;4.65;1.75;;;;;;;;;;5044684;28;20032;-65
2023/07/26 08:36:32;;;;;;;3.35;1.52;;;;;;;;;;5045366;28;20036;-66
2023/07/26 08:38:58;;;;;;;3.60;1.65;;;;;;;;;;5044964;28;20048;-65
2023/07/26 08:41:24;;;;;;;3.33;1.70;;;;;;;;;;5045675;28;20040;-65
2023/07/26 08:43:52;;;;;;;3.00;1.58;;;;;;;;;;5044580;28;20048;-65
2023/07/26 08:46:18;;;;;;;4.53;1.92;;;;;;;;;;5044021;28;20775;-65
2023/07/26 08:48:45;;;;;;;3.42;1.80;;;;;;;;;;5024388;28;20120;-65
2023/07/26 08:51:11;;;;;;;2.78;1.35;;;;;;;;;;5042860;28;20036;-65
2023/07/26 08:53:37;;;;;;;4.28;1.70;;;;;;;;;;5044467;28;20544;-65
2023/07/26 08:56:05;;;;;;;3.75;1.65;;;;;;;;;;5044236;28;21013;-65
2023/07/26 08:58:31;;;;;;;3.80;1.73;;;;;;;;;;5044473;28;20642;-65
2023/07/26 09:00:59;;;;;;;4.45;1.92;;;;;;;;;;5045778;28;20044;-65
2023/07/26 09:03:25;;;;;;;4.40;2.25;;;;;;;;;;5043323;28;20028;-65
2023/07/26 09:06:05;;;;;;;5.45;1.95;;;;;;;;;;5046132;28;20230;-65
2023/07/26 09:08:34;;;;;;;5.50;2.67;;;;;;;;;;5027249;28;20063;-65
2023/07/26 09:11:03;;;;;;;4.78;2.25;;;;;;;;;;5045399;28;20056;-65
2023/07/26 09:13:29;;;;;;;4.18;2.03;;;;;;;;;;5027261;28;20120;-65
2023/07/26 09:15:57;;;;;;;4.28;2.00;;;;;;;;;;5044854;28;21031;-65
2023/07/26 09:18:23;;;;;;;3.35;1.77;;;;;;;;;;5024878;28;20167;-65
2023/07/26 09:21:00;;;;;;;4.72;2.13;;;;;;;;;;5044502;28;20036;-65
2023/07/26 09:23:27;;;;;;;5.82;2.33;;;;;;;;;;5044950;28;20044;-65
2023/07/26 09:25:53;;;;;;;4.57;2.08;;;;;;;;;;5044422;28;20044;-65
2023/07/26 09:28:19;;;;;;;5.13;2.10;;;;;;;;;;5045316;28;20458;-65
2023/07/26 09:30:45;;;;;;;4.78;2.40;;;;;;;;;;5044902;28;21167;-65
2023/07/26 09:33:12;;;;;;;5.20;2.85;;;;;;;;;;5043549;28;20043;-65
2023/07/26 09:35:43;;;;;;;3.70;1.98;;;;;;;;;;5045239;28;20040;-65
2023/07/26 09:38:09;;;;;;;5.70;2.30;;;;;;;;;;5044550;28;20439;-65
2023/07/26 09:40:35;;;;;;;6.05;2.88;;;;;;;;;;5045390;28;21696;-65
2023/07/26 09:43:02;;;;;;;4.20;1.98;;;;;;;;;;5044704;28;20079;-65
2023/07/26 09:45:28;;;;;;;5.85;1.88;;;;;;;;;;5043738;28;20044;-65
2023/07/26 09:48:04;;;;;;;4.82;2.05;;;;;;;;;;5044537;28;20058;-66
2023/07/26 09:50:31;;;;;;;6.00;2.38;;;;;;;;;;5043888;28;20110;-65
2023/07/26 09:52:57;;;;;;;4.00;1.73;;;;;;;;;;5043908;28;20111;-65
2023/07/26 09:55:27;;;;;;;3.17;1.75;;;;;;;;;;5044264;28;20054;-65
2023/07/26 09:57:54;;;;;;;6.13;1.98;;;;;;;;;;5044914;28;20040;-65
2023/07/26 10:00:24;;;;;;;5.63;1.80;;;;;;;;;;5042714;28;20036;-65
2023/07/26 10:03:04;;;;;;;6.90;2.30;;;;;;;;;;5044718;28;20032;-65
2023/07/26 10:05:39;;;;;;;5.43;2.00;;;;;;;;;;5045421;28;20378;-65
2023/07/26 10:08:05;;;;;;;3.65;1.70;;;;;;;;;;5044807;28;20052;-65
2023/07/26 10:10:32;;;;;;;3.00;1.50;;;;;;;;;;5045962;28;20155;-65
2023/07/26 10:12:59;;;;;;;3.60;1.73;;;;;;;;;;5043836;28;20159;-65
2023/07/26 10:15:28;;;;;;;5.30;1.85;;;;;;;;;;5044341;28;20027;-60
2023/07/26 10:17:54;;;;;;;3.10;1.20;;;;;;;;;;5043348;28;20145;-60
2023/07/26 10:20:20;;;;;;;3.13;1.38;;;;;;;;;;5043260;28;20032;-60
2023/07/26 10:22:47;;;;;;;3.45;1.33;;;;;;;;;;5043921;28;21322;-60
2023/07/26 10:25:17;;;;;;;4.18;1.67;;;;;;;;;;5044403;28;20056;-60
2023/07/26 10:27:43;;;;;;;4.20;1.58;;;;;;;;;;5044746;28;20553;-61
2023/07/26 10:30:10;;;;;;;3.03;1.40;;;;;;;;;;5044257;28;20159;-60
2023/07/26 10:32:41;;;;;;;4.63;1.73;;;;;;;;;;5042476;28;20167;-61
2023/07/26 10:35:10;;;;;;;4.03;1.65;;;;;;;;;;5044534;28;20028;-61
2023/07/26 10:37:36;;;;;;;4.10;1.48;;;;;;;;;;5043346;28;20411;-60
2023/07/26 10:40:26;;;;;;;2.95;1.33;;;;;;;;;;5044537;28;20111;-60
2023/07/26 10:42:52;;;;;;;5.47;1.70;;;;;;;;;;5038427;28;20044;-61
2023/07/26 10:45:43;;;;;;;4.95;1.45;;;;;;;;;;5043669;28;20575;-61
2023/07/26 10:48:28;;;;;;;3.33;1.33;;;;;;;;;;5032009;28;20321;-60
2023/07/26 10:50:58;;;;;;;2.72;1.33;;;;;;;;;;5043825;28;20033;-60
2023/07/26 10:53:28;;;;;;;4.38;1.40;;;;;;;;;;5042858;28;20037;-60
2023/07/26 10:56:06;;;;;;;2.85;1.25;;;;;;;;;;5043446;28;20089;-60
2023/07/26 10:58:32;;;;;;;4.55;1.10;;;;;;;;;;5041018;28;20924;-61
2023/07/26 11:01:17;;;;;;;2.70;0.90;;;;;;;;;;5042104;28;20044;-61
2023/07/26 11:03:43;;;;;;;5.57;1.05;;;;;;;;;;5041457;28;20036;-61
2023/07/26 11:06:09;;;;;;;7.43;1.60;;;;;;;;;;5041876;28;20026;-61
2023/07/26 11:08:46;;;;;;;7.45;1.40;;;;;;;;;;5042969;28;20055;-61
2023/07/26 11:11:17;;;;;;;4.57;1.25;;;;;;;;;;5044224;28;21513;-61
2023/07/26 11:13:43;;;;;;;3.72;1.60;;;;;;;;;;5042117;28;20068;-61
2023/07/26 11:16:10;;;;;;;3.45;1.20;;;;;;;;;;5044580;28;20028;-61
2023/07/26 11:18:43;;;;;;;3.03;1.02;;;;;;;;;;5043695;28;20062;-62
2023/07/26 11:21:14;;;;;;;4.00;0.90;;;;;;;;;;5042739;28;20086;-61
2023/07/26 11:23:40;;;;;;;5.30;1.33;;;;;;;;;;5044022;28;20033;-61
2023/07/26 11:26:06;;;;;;;5.20;1.20;;;;;;;;;;5043954;28;20123;-61
2023/07/26 11:28:33;;;;;;;2.42;0.90;;;;;;;;;;5041712;28;20900;-61
2023/07/26 11:31:00;;;;;;;3.35;1.13;;;;;;;;;;5043516;28;20901;-61
2023/07/26 11:33:30;;;;;;;4.18;1.30;;;;;;;;;;5043833;28;20028;-61
2023/07/26 11:35:57;;;;;;;3.92;1.00;;;;;;;;;;5044661;28;20028;-61
2023/07/26 11:38:23;;;;;;;4.55;1.45;;;;;;;;;;5023931;28;20082;-61
2023/07/26 11:40:50;;;;;;;4.45;1.50;;;;;;;;;;5025942;28;20113;-61
2023/07/26 11:43:16;;;;;;;4.63;1.45;;;;;;;;;;5043996;28;20048;-61
2023/07/26 11:45:43;;;;;;;3.70;1.20;;;;;;;;;;5047673;28;20119;-61
2023/07/26 11:48:11;;;;;;;5.68;1.27;;;;;;;;;;5047971;28;20030;-61
2023/07/26 11:50:37;;;;;;;3.80;1.08;;;;;;;;;;5047110;28;20024;-61
2023/07/26 11:53:04;;;;;;;4.18;1.20;;;;;;;;;;5046818;28;20064;-61
2023/07/26 11:55:30;;;;;;;3.70;1.13;;;;;;;;;;5047763;28;21044;-61
2023/07/26 11:58:00;;;;;;;3.95;1.00;;;;;;;;;;5046291;28;20029;-61
2023/07/26 12:00:26;;;;;;;2.42;1.15;;;;;;;;;;5048093;28;20032;-61
2023/07/26 12:02:52;;;;;;;2.85;0.90;;;;;;;;;;5046693;28;20513;-61
2023/07/26 12:05:19;;;;;;;2.50;1.10;;;;;;;;;;5047757;28;20028;-61
2023/07/26 12:07:47;;;;;;;2.75;1.15;;;;;;;;;;5046480;28;20119;-61
2023/07/26 12:10:13;;;;;;;3.90;1.45;;;;;;;;;;5046645;28;20025;-61
2023/07/26 12:12:43;;;;;;;4.30;1.50;;;;;;;;;;5028721;28;20040;-61
2023/07/26 12:15:10;;;;;;;3.05;1.23;;;;;;;;;;5046496;28;20040;-61
2023/07/26 12:17:36;;;;;;;6.60;1.60;;;;;;;;;;5046915;28;20032;-61
2023/07/26 12:20:03;;;;;;;2.78;1.45;;;;;;;;;;5044759;28;20071;-61
2023/07/26 12:22:29;;;;;;;4.32;1.60;;;;;;;;;;5053409;28;20024;-61
2023/07/26 12:24:55;;;;;;;3.17;1.38;;;;;;;;;;5056305;28;20067;-61
2023/07/26 12:27:21;;;;;;;6.78;2.08;;;;;;;;;;5056399;28;20696;-61
2023/07/26 12:29:47;;;;;;;4.03;1.50;;;;;;;;;;5038850;28;20039;-61
2023/07/26 12:32:17;;;;;;;4.40;1.70;;;;;;;;;;5056615;28;20407;-61
2023/07/26 12:34:43;;;;;;;5.78;1.83;;;;;;;;;;5056443;28;20035;-61
2023/07/26 12:37:10;;;;;;;4.22;1.30;;;;;;;;;;5057020;28;20445;-61
2023/07/26 12:39:39;;;;;;;4.32;1.55;;;;;;;;;;5056335;28;20059;-61
2023/07/26 12:42:06;;;;;;;3.28;1.40;;;;;;;;;;5056909;28;20029;-61
2023/07/26 12:44:32;;;;;;;3.83;1.70;;;;;;;;;;5056885;28;20794;-61
2023/07/26 12:46:59;;;;;;;6.35;1.48;;;;;;;;;;5056405;28;20071;-61
2023/07/26 12:49:25;;;;;;;4.82;1.60;;;;;;;;;;5056854;28;20681;-61
2023/07/26 12:51:51;;;;;;;6.00;1.60;;;;;;;;;;5039738;28;20028;-61
2023/07/26 12:54:18;;;;;;;4.72;1.92;;;;;;;;;;5055322;28;20068;-61
2023/07/26 12:56:44;;;;;;;3.85;1.33;;;;;;;;;;5057151;28;20032;-61
2023/07/26 12:59:10;;;;;;;6.63;2.08;;;;;;;;;;5041515;28;20078;-61
2023/07/26 13:01:37;;;;;;;5.78;1.67;;;;;;;;;;5057171;28;20048;-61
2023/07/26 13:04:03;;;;;;;4.93;1.70;;;;;;;;;;5057734;28;20032;-61
2023/07/26 13:06:29;;;;;;;7.85;1.85;;;;;;;;;;5059096;28;20029;-61
2023/07/26 13:08:55;;;;;;;4.22;1.48;;;;;;;;;;5057820;28;20506;-61
2023/07/26 13:11:21;;;;;;;4.22;1.67;;;;;;;;;;5059472;28;20039;-61
2023/07/26 13:13:47;;;;;;;7.47;1.98;;;;;;;;;;5060657;28;20037;-61
2023/07/26 13:16:13;;;;;;;8.35;1.60;;;;;;;;;;5060454;28;20047;-61
2023/07/26 13:18:39;;;;;;;6.18;1.42;;;;;;;;;;5060431;28;20082;-61
2023/07/26 13:21:05;;;;;;;8.43;1.60;;;;;;;;;;5059561;28;20036;-61
2023/07/26 13:23:32;;;;;;;4.63;1.20;;;;;;;;;;5059945;28;20040;-61
2023/07/26 13:25:58;;;;;;;2.72;1.20;;;;;;;;;;5060015;28;20815;-61
2023/07/26 13:28:24;;;;;;;5.93;2.13;;;;;;;;;;5059416;28;20554;-61
2023/07/26 13:30:50;;;;;;;5.07;1.85;;;;;;;;;;5059817;28;20089;-61
2023/07/26 13:33:16;;;;;;;4.05;1.60;;;;;;;;;;5060222;28;20041;-61
2023/07/26 13:35:42;;;;;;;2.67;1.27;;;;;;;;;;5059747;28;20067;-61
2023/07/26 13:38:08;;;;;;;4.07;1.70;;;;;;;;;;5059773;28;20581;-61
2023/07/26 13:40:34;;;;;;;5.28;2.13;;;;;;;;;;5059718;28;20029;-61
2023/07/26 13:43:00;;;;;;;4.30;1.60;;;;;;;;;;5060024;28;20078;-61
2023/07/26 13:45:26;;;;;;;4.47;1.52;;;;;;;;;;5058649;28;20857;-61
2023/07/26 13:47:52;;;;;;;6.28;1.67;;;;;;;;;;5059912;28;20797;-61
2023/07/26 13:50:18;;;;;;;5.85;1.90;;;;;;;;;;5045059;28;20110;-61
2023/07/26 13:52:44;;;;;;;3.83;1.38;;;;;;;;;;5040278;28;20059;-61
2023/07/26 13:55:10;;;;;;;5.68;1.85;;;;;;;;;;5060147;28;20886;-61
2023/07/26 13:57:36;;;;;;;3.80;1.60;;;;;;;;;;5059282;28;20027;-61
2023/07/26 14:00:03;;;;;;;4.70;1.20;;;;;;;;;;5059631;28;20575;-61
2023/07/26 14:02:30;;;;;;;3.72;1.23;;;;;;;;;;5058395;28;20055;-61
2023/07/26 14:04:56;;;;;;;2.90;1.60;;;;;;;;;;5057477;28;20032;-61
2023/07/26 14:07:22;;;;;;;4.55;1.70;;;;;;;;;;5058040;28;20143;-61
2023/07/26 14:09:48;;;;;;;4.35;1.50;;;;;;;;;;5058574;28;20047;-61
2023/07/26 14:12:15;;;;;;;4.22;1.52;;;;;;;;;;5059276;28;20031;-61
2023/07/26 14:14:41;;;;;;;3.03;1.30;;;;;;;;;;5059495;28;20034;-61
2023/07/26 14:17:07;;;;;;;3.33;1.58;;;;;;;;;;5059941;28;20527;-61
2023/07/26 14:19:34;;;;;;;3.20;1.30;;;;;;;;;;5058516;28;20040;-61
2023/07/26 14:22:02;;;;;;;3.53;1.20;;;;;;;;;;5057915;28;20028;-61
2023/07/26 14:24:28;;;;;;;5.32;1.70;;;;;;;;;;5057720;28;20037;-61
2023/07/26 14:26:54;;;;;;;3.28;1.50;;;;;;;;;;5058842;28;20114;-61
2023/07/26 14:29:20;;;;;;;4.35;1.40;;;;;;;;;;5059250;28;20040;-61
2023/07/26 14:31:48;;;;;;;3.15;1.40;;;;;;;;;;5059194;28;20036;-61
2023/07/26 14:34:17;;;;;;;3.97;1.33;;;;;;;;;;5059567;28;20047;-61
2023/07/26 14:36:46;;;;;;;3.85;1.60;;;;;;;;;;5057996;28;20044;-61
2023/07/26 14:39:12;;;;;;;4.85;1.83;;;;;;;;;;5058946;28;20037;-61
2023/07/26 14:41:38;;;;;;;5.05;2.00;;;;;;;;;;5056651;28;20035;-61